createdAt,value
2018-11-29T00:00:43.867Z,70.98
2018-11-29T00:01:43.849Z,70.89
2018-11-29T00:03:47.866Z,70.89
2018-11-29T00:04:47.887Z,70.98
2018-11-29T00:06:51.926Z,70.79
2018-11-29T00:07:51.922Z,71.08
2018-11-29T00:09:55.946Z,71.36
2018-11-29T00:10:55.959Z,70.89
2018-11-29T00:12:59.994Z,71.46
2018-11-29T00:14:00.001Z,71.36
2018-11-29T00:16:04.087Z,71.36
2018-11-29T00:17:04.033Z,71.27
2018-11-29T00:19:08.051Z,71.61
2018-11-29T00:20:08.067Z,71.55
2018-11-29T00:21:08.092Z,71.65
2018-11-29T00:22:08.118Z,71.74
2018-11-29T00:23:08.144Z,71.84
2018-11-29T00:24:08.167Z,71.33
2018-11-29T00:25:08.193Z,71.93
2018-11-29T00:26:08.221Z,71.80
2018-11-29T00:27:08.250Z,72.28
2018-11-29T00:28:08.270Z,71.99
2018-11-29T00:29:08.291Z,72.28
2018-11-29T00:30:08.316Z,72.09
2018-11-29T00:31:08.342Z,71.99
2018-11-29T00:32:08.371Z,71.80
2018-11-29T00:33:08.436Z,72.09
2018-11-29T00:34:08.420Z,72.18
2018-11-29T00:35:08.442Z,72.18
2018-11-29T00:36:08.465Z,72.56
2018-11-29T00:37:08.490Z,72.66
2018-11-29T00:38:08.517Z,72.85
2018-11-29T00:39:08.544Z,72.94
2018-11-29T00:40:08.565Z,72.66
2018-11-29T00:41:08.590Z,72.66
2018-11-29T00:42:08.617Z,72.47
2018-11-29T00:43:08.640Z,72.66
2018-11-29T00:44:08.668Z,72.75
2018-11-29T00:45:08.689Z,72.56
2018-11-29T00:46:08.714Z,72.75
2018-11-29T00:47:08.742Z,73.03
2018-11-29T00:48:08.762Z,72.75
2018-11-29T00:49:08.791Z,72.85
2018-11-29T00:50:08.812Z,72.75
2018-11-29T00:51:08.846Z,72.85
2018-11-29T00:52:08.895Z,73.03
2018-11-29T00:53:08.887Z,73.03
2018-11-29T00:54:08.911Z,72.85
2018-11-29T00:55:08.937Z,73.03
2018-11-29T00:56:08.967Z,72.66
2018-11-29T00:57:08.985Z,72.66
2018-11-29T00:58:09.009Z,72.56
2018-11-29T00:59:09.036Z,72.56
2018-11-29T01:00:09.059Z,72.47
2018-11-29T01:01:09.085Z,72.85
2018-11-29T01:02:09.112Z,73.22
2018-11-29T01:03:09.135Z,72.47
2018-11-29T01:04:09.158Z,72.47
2018-11-29T01:05:09.184Z,72.56
2018-11-29T01:06:09.208Z,72.56
2018-11-29T01:07:09.237Z,72.66
2018-11-29T01:08:09.257Z,72.66
2018-11-29T01:09:09.282Z,72.66
2018-11-29T01:10:09.306Z,72.94
2018-11-29T01:11:09.333Z,72.75
2018-11-29T01:12:09.356Z,72.94
2018-11-29T01:13:09.384Z,72.94
2018-11-29T01:14:09.406Z,72.94
2018-11-29T01:15:09.437Z,72.75
2018-11-29T01:16:09.467Z,73.03
2018-11-29T01:17:09.523Z,72.85
2018-11-29T01:18:09.505Z,72.85
2018-11-29T01:19:09.537Z,72.94
2018-11-29T01:20:09.556Z,72.56
2018-11-29T01:21:09.578Z,73.03
2018-11-29T01:22:09.654Z,73.03
2018-11-29T01:23:09.630Z,72.94
2018-11-29T01:24:09.653Z,73.03
2018-11-29T01:25:09.680Z,73.32
2018-11-29T01:26:09.703Z,72.94
2018-11-29T01:27:09.728Z,73.03
2018-11-29T01:28:09.750Z,72.85
2018-11-29T01:29:09.778Z,73.03
2018-11-29T01:30:09.801Z,73.22
2018-11-29T01:31:09.825Z,73.13
2018-11-29T01:32:09.850Z,72.75
2018-11-29T01:33:09.875Z,72.66
2018-11-29T01:34:09.901Z,72.47
2018-11-29T01:35:09.924Z,72.66
2018-11-29T01:36:09.950Z,72.47
2018-11-29T01:37:09.976Z,72.85
2018-11-29T01:38:09.998Z,72.75
2018-11-29T01:39:10.023Z,72.85
2018-11-29T01:40:10.046Z,73.03
2018-11-29T01:41:10.073Z,72.94
2018-11-29T01:42:10.097Z,73.22
2018-11-29T01:43:10.127Z,72.85
2018-11-29T01:44:10.146Z,72.94
2018-11-29T01:45:10.171Z,72.75
2018-11-29T01:46:10.198Z,73.03
2018-11-29T01:47:10.220Z,72.94
2018-11-29T01:48:10.244Z,73.03
2018-11-29T01:49:10.270Z,72.85
2018-11-29T01:50:10.296Z,72.94
2018-11-29T01:51:10.319Z,72.75
2018-11-29T01:52:10.343Z,72.94
2018-11-29T01:53:10.373Z,72.85
2018-11-29T01:54:10.395Z,72.85
2018-11-29T01:55:10.419Z,72.94
2018-11-29T01:56:10.443Z,72.85
2018-11-29T01:57:10.466Z,72.85
2018-11-29T01:58:10.491Z,73.13
2018-11-29T01:59:10.515Z,73.13
2018-11-29T02:00:10.541Z,73.03
2018-11-29T02:01:10.564Z,73.13
2018-11-29T02:02:10.590Z,73.03
2018-11-29T02:03:10.616Z,73.03
2018-11-29T02:04:10.638Z,72.85
2018-11-29T02:05:10.664Z,72.94
2018-11-29T02:06:10.687Z,73.03
2018-11-29T02:07:10.711Z,73.32
2018-11-29T02:08:10.738Z,72.75
2018-11-29T02:09:10.771Z,72.75
2018-11-29T02:10:10.787Z,72.94
2018-11-29T02:11:10.811Z,73.03
2018-11-29T02:12:10.833Z,72.85
2018-11-29T02:13:10.859Z,72.85
2018-11-29T02:14:10.882Z,73.03
2018-11-29T02:15:10.909Z,72.94
2018-11-29T02:16:10.933Z,73.03
2018-11-29T02:17:10.961Z,72.75
2018-11-29T02:18:10.981Z,73.03
2018-11-29T02:19:11.017Z,73.03
2018-11-29T02:20:11.030Z,72.94
2018-11-29T02:21:11.057Z,73.13
2018-11-29T02:22:11.085Z,72.94
2018-11-29T02:23:11.105Z,72.94
2018-11-29T02:24:11.131Z,73.03
2018-11-29T02:25:11.162Z,72.85
2018-11-29T02:26:11.179Z,72.47
2018-11-29T02:27:11.204Z,72.66
2018-11-29T02:28:11.231Z,72.56
2018-11-29T02:29:11.266Z,72.66
2018-11-29T02:30:11.279Z,72.66
2018-11-29T02:31:11.304Z,72.94
2018-11-29T02:32:11.323Z,72.66
2018-11-29T02:33:11.349Z,72.75
2018-11-29T02:34:11.375Z,72.66
2018-11-29T02:35:11.399Z,72.66
2018-11-29T02:36:11.423Z,72.66
2018-11-29T02:37:11.448Z,72.47
2018-11-29T02:38:11.471Z,72.75
2018-11-29T02:39:11.495Z,72.66
2018-11-29T02:40:11.519Z,72.85
2018-11-29T02:41:11.545Z,72.85
2018-11-29T02:42:11.570Z,73.03
2018-11-29T02:43:11.592Z,73.03
2018-11-29T02:44:11.617Z,73.13
2018-11-29T02:45:11.642Z,72.56
2018-11-29T02:46:11.666Z,72.37
2018-11-29T02:47:11.689Z,72.85
2018-11-29T02:48:11.714Z,72.56
2018-11-29T02:49:11.739Z,72.66
2018-11-29T02:50:11.776Z,72.47
2018-11-29T02:51:11.794Z,72.85
2018-11-29T02:52:11.813Z,72.28
2018-11-29T02:53:11.837Z,72.66
2018-11-29T02:54:11.862Z,72.28
2018-11-29T02:55:11.887Z,72.09
2018-11-29T02:56:11.909Z,72.28
2018-11-29T02:57:11.939Z,72.18
2018-11-29T02:58:11.961Z,72.28
2018-11-29T02:59:12.029Z,72.18
2018-11-29T03:00:12.007Z,72.09
2018-11-29T03:01:12.033Z,72.18
2018-11-29T03:02:12.055Z,71.99
2018-11-29T03:03:12.080Z,71.99
2018-11-29T03:04:12.103Z,71.99
2018-11-29T03:05:12.127Z,71.99
2018-11-29T03:06:12.157Z,71.99
2018-11-29T03:07:12.176Z,72.09
2018-11-29T03:08:12.203Z,71.99
2018-11-29T03:09:12.223Z,72.37
2018-11-29T03:10:12.247Z,71.90
2018-11-29T03:11:12.272Z,71.99
2018-11-29T03:12:12.297Z,72.09
2018-11-29T03:13:12.323Z,71.90
2018-11-29T03:14:12.350Z,72.28
2018-11-29T03:15:12.381Z,71.90
2018-11-29T03:16:12.670Z,71.99
2018-11-29T03:17:12.427Z,71.99
2018-11-29T03:18:12.443Z,72.09
2018-11-29T03:19:12.467Z,71.90
2018-11-29T03:20:12.493Z,71.99
2018-11-29T03:21:12.519Z,71.90
2018-11-29T03:22:12.542Z,72.09
2018-11-29T03:23:12.564Z,71.52
2018-11-29T03:24:12.588Z,71.52
2018-11-29T03:25:12.614Z,71.71
2018-11-29T03:26:12.636Z,71.42
2018-11-29T03:27:12.661Z,71.52
2018-11-29T03:28:12.685Z,71.61
2018-11-29T03:29:12.712Z,71.71
2018-11-29T03:30:12.734Z,71.52
2018-11-29T03:31:12.761Z,71.61
2018-11-29T03:32:12.782Z,71.80
2018-11-29T03:33:12.807Z,71.71
2018-11-29T03:34:12.832Z,71.80
2018-11-29T03:35:12.857Z,71.52
2018-11-29T03:36:12.880Z,71.90
2018-11-29T03:37:12.902Z,71.90
2018-11-29T03:38:12.960Z,71.99
2018-11-29T03:39:12.953Z,71.42
2018-11-29T03:40:12.983Z,71.23
2018-11-29T03:41:13.002Z,70.86
2018-11-29T03:42:13.025Z,70.76
2018-11-29T03:43:13.049Z,70.76
2018-11-29T03:44:13.074Z,70.57
2018-11-29T03:45:13.096Z,70.76
2018-11-29T03:46:13.124Z,71.04
2018-11-29T03:47:13.146Z,71.14
2018-11-29T03:48:13.183Z,70.67
2018-11-29T03:49:13.194Z,70.76
2018-11-29T03:50:13.231Z,71.52
2018-11-29T03:51:13.243Z,70.86
2018-11-29T03:52:13.267Z,71.04
2018-11-29T03:53:13.290Z,70.95
2018-11-29T03:54:13.316Z,71.52
2018-11-29T03:55:13.339Z,70.67
2018-11-29T03:56:13.363Z,70.76
2018-11-29T03:57:13.387Z,71.23
2018-11-29T03:58:13.412Z,71.42
2018-11-29T03:59:13.438Z,70.86
2018-11-29T04:00:13.458Z,71.04
2018-11-29T04:01:13.483Z,71.04
2018-11-29T04:02:13.508Z,70.76
2018-11-29T04:03:13.533Z,70.86
2018-11-29T04:04:13.557Z,70.86
2018-11-29T04:05:13.585Z,70.48
2018-11-29T04:06:13.605Z,70.39
2018-11-29T04:07:13.630Z,70.48
2018-11-29T04:08:13.655Z,70.39
2018-11-29T04:09:13.679Z,70.29
2018-11-29T04:10:13.707Z,70.20
2018-11-29T04:11:13.726Z,70.01
2018-11-29T04:12:13.760Z,70.01
2018-11-29T04:13:13.774Z,70.10
2018-11-29T04:14:13.799Z,70.20
2018-11-29T04:15:13.825Z,70.10
2018-11-29T04:16:13.851Z,70.20
2018-11-29T04:17:13.871Z,70.20
2018-11-29T04:18:13.896Z,70.29
2018-11-29T04:19:13.920Z,70.29
2018-11-29T04:20:13.946Z,70.20
2018-11-29T04:21:13.969Z,70.29
2018-11-29T04:22:13.997Z,70.39
2018-11-29T04:23:14.017Z,70.01
2018-11-29T04:24:14.042Z,70.01
2018-11-29T04:25:14.069Z,69.91
2018-11-29T04:26:14.090Z,69.82
2018-11-29T04:27:14.113Z,69.82
2018-11-29T04:28:14.139Z,69.82
2018-11-29T04:29:14.161Z,69.91
2018-11-29T04:30:14.192Z,69.53
2018-11-29T04:31:14.212Z,69.82
2018-11-29T04:32:14.235Z,69.72
2018-11-29T04:33:14.260Z,69.72
2018-11-29T04:34:14.284Z,69.63
2018-11-29T04:35:14.310Z,69.53
2018-11-29T04:36:14.333Z,68.96
2018-11-29T04:37:14.359Z,69.06
2018-11-29T04:38:14.382Z,69.25
2018-11-29T04:39:14.407Z,69.34
2018-11-29T04:40:14.432Z,69.34
2018-11-29T04:41:14.455Z,69.34
2018-11-29T04:42:14.479Z,69.15
2018-11-29T04:43:14.504Z,69.53
2018-11-29T04:44:14.528Z,69.44
2018-11-29T04:45:14.553Z,69.44
2018-11-29T04:46:14.575Z,68.96
2018-11-29T04:47:14.602Z,69.06
2018-11-29T04:48:14.627Z,69.25
2018-11-29T04:49:14.650Z,69.34
2018-11-29T04:50:14.673Z,69.25
2018-11-29T04:51:14.698Z,68.87
2018-11-29T04:52:14.724Z,68.96
2018-11-29T04:53:14.745Z,69.06
2018-11-29T04:54:14.774Z,68.77
2018-11-29T04:55:14.794Z,68.68
2018-11-29T04:56:14.818Z,68.49
2018-11-29T04:57:14.842Z,68.49
2018-11-29T04:58:14.868Z,68.68
2018-11-29T04:59:14.892Z,68.96
2018-11-29T05:00:14.914Z,68.30
2018-11-29T05:01:14.939Z,68.68
2018-11-29T05:02:14.964Z,68.40
2018-11-29T05:03:14.987Z,68.49
2018-11-29T05:04:15.011Z,68.30
2018-11-29T05:05:15.036Z,68.68
2018-11-29T05:06:15.060Z,68.77
2018-11-29T05:07:15.084Z,68.49
2018-11-29T05:08:15.110Z,68.49
2018-11-29T05:09:15.133Z,68.21
2018-11-29T05:10:15.155Z,67.74
2018-11-29T05:11:15.180Z,68.02
2018-11-29T05:12:15.206Z,68.02
2018-11-29T05:13:15.228Z,67.74
2018-11-29T05:14:15.254Z,67.93
2018-11-29T05:15:15.277Z,67.64
2018-11-29T05:16:15.300Z,67.17
2018-11-29T05:17:15.326Z,67.64
2018-11-29T05:18:15.349Z,67.07
2018-11-29T05:19:15.374Z,67.83
2018-11-29T05:20:15.397Z,67.26
2018-11-29T05:21:15.421Z,67.07
2018-11-29T05:22:15.450Z,66.98
2018-11-29T05:23:15.472Z,66.98
2018-11-29T05:24:15.494Z,67.07
2018-11-29T05:25:17.032Z,67.07
2018-11-29T05:26:15.543Z,66.98
2018-11-29T05:27:15.578Z,67.07
2018-11-29T05:28:15.592Z,66.98
2018-11-29T05:29:15.619Z,67.07
2018-11-29T05:30:15.641Z,66.88
2018-11-29T05:31:15.664Z,66.79
2018-11-29T05:32:15.687Z,66.88
2018-11-29T05:33:15.764Z,66.98
2018-11-29T05:34:15.736Z,66.60
2018-11-29T05:35:15.771Z,66.69
2018-11-29T05:36:15.784Z,66.79
2018-11-29T05:37:15.806Z,66.50
2018-11-29T05:38:15.833Z,66.50
2018-11-29T05:39:15.857Z,66.13
2018-11-29T05:40:15.880Z,66.22
2018-11-29T05:41:15.904Z,66.03
2018-11-29T05:42:15.930Z,66.41
2018-11-29T05:43:15.953Z,65.28
2018-11-29T05:44:15.975Z,65.56
2018-11-29T05:45:16.001Z,65.84
2018-11-29T05:46:16.054Z,66.41
2018-11-29T05:47:16.063Z,66.22
2018-11-29T05:48:16.073Z,65.66
2018-11-29T05:49:16.097Z,65.66
2018-11-29T05:50:16.137Z,65.84
2018-11-29T05:51:16.147Z,65.75
2018-11-29T05:52:16.170Z,65.84
2018-11-29T05:53:16.195Z,65.28
2018-11-29T05:54:16.219Z,65.56
2018-11-29T05:55:16.242Z,65.28
2018-11-29T05:56:16.267Z,65.56
2018-11-29T05:57:16.291Z,65.28
2018-11-29T05:58:16.317Z,65.28
2018-11-29T05:59:16.339Z,65.09
2018-11-29T06:00:16.364Z,64.99
2018-11-29T06:01:16.387Z,64.90
2018-11-29T06:02:16.413Z,64.90
2018-11-29T06:03:16.444Z,64.71
2018-11-29T06:04:16.460Z,64.71
2018-11-29T06:05:16.487Z,64.80
2018-11-29T06:06:16.516Z,64.71
2018-11-29T06:07:16.538Z,64.80
2018-11-29T06:08:16.558Z,64.80
2018-11-29T06:09:16.583Z,64.71
2018-11-29T06:10:16.607Z,64.80
2018-11-29T06:11:16.632Z,64.80
2018-11-29T06:12:16.657Z,64.71
2018-11-29T06:13:16.679Z,64.61
2018-11-29T06:14:16.704Z,64.61
2018-11-29T06:15:16.728Z,64.90
2018-11-29T06:16:16.751Z,64.90
2018-11-29T06:17:16.775Z,64.80
2018-11-29T06:18:16.802Z,64.42
2018-11-29T06:19:16.824Z,64.23
2018-11-29T06:20:16.849Z,64.52
2018-11-29T06:21:16.874Z,64.14
2018-11-29T06:22:16.898Z,64.71
2018-11-29T06:23:16.922Z,64.42
2018-11-29T06:24:16.947Z,63.10
2018-11-29T06:25:16.998Z,63.10
2018-11-29T06:26:16.996Z,63.01
2018-11-29T06:27:17.018Z,62.91
2018-11-29T06:28:17.042Z,63.29
2018-11-29T06:29:17.068Z,63.20
2018-11-29T06:30:17.094Z,63.20
2018-11-29T06:31:17.117Z,63.57
2018-11-29T06:32:17.139Z,63.57
2018-11-29T06:33:17.167Z,63.48
2018-11-29T06:34:17.188Z,63.29
2018-11-29T06:35:17.218Z,63.01
2018-11-29T06:36:17.237Z,63.10
2018-11-29T06:37:17.262Z,63.01
2018-11-29T06:38:17.290Z,62.91
2018-11-29T06:39:17.309Z,63.20
2018-11-29T06:40:17.349Z,63.01
2018-11-29T06:41:17.357Z,63.10
2018-11-29T06:42:17.383Z,63.10
2018-11-29T06:43:17.409Z,63.01
2018-11-29T06:44:17.430Z,63.10
2018-11-29T06:45:17.454Z,63.01
2018-11-29T06:46:17.481Z,62.44
2018-11-29T06:47:17.504Z,62.63
2018-11-29T06:48:17.532Z,62.91
2018-11-29T06:49:17.551Z,63.01
2018-11-29T06:50:17.575Z,62.34
2018-11-29T06:51:17.598Z,62.53
2018-11-29T06:52:17.625Z,62.25
2018-11-29T06:53:17.647Z,62.63
2018-11-29T06:54:17.671Z,62.63
2018-11-29T06:55:17.696Z,62.44
2018-11-29T06:56:17.719Z,62.44
2018-11-29T06:57:17.755Z,62.63
2018-11-29T06:58:17.771Z,62.25
2018-11-29T06:59:17.791Z,62.63
2018-11-29T07:00:17.816Z,62.63
2018-11-29T07:01:17.841Z,62.53
2018-11-29T07:02:17.864Z,62.63
2018-11-29T07:03:17.889Z,61.96
2018-11-29T07:04:17.912Z,61.96
2018-11-29T07:05:17.936Z,62.06
2018-11-29T07:06:17.961Z,61.96
2018-11-29T07:07:17.985Z,61.68
2018-11-29T07:08:18.009Z,61.30
2018-11-29T07:09:18.031Z,62.06
2018-11-29T07:10:18.056Z,62.15
2018-11-29T07:11:18.081Z,61.87
2018-11-29T07:12:18.107Z,62.15
2018-11-29T07:13:18.136Z,62.06
2018-11-29T07:14:18.153Z,62.15
2018-11-29T07:15:18.177Z,61.58
2018-11-29T07:16:18.201Z,61.58
2018-11-29T07:17:18.226Z,61.77
2018-11-29T07:18:18.250Z,61.11
2018-11-29T07:19:18.274Z,61.11
2018-11-29T07:20:18.325Z,61.21
2018-11-29T07:21:18.320Z,61.49
2018-11-29T07:22:18.347Z,61.49
2018-11-29T07:23:18.371Z,61.58
2018-11-29T07:24:18.396Z,61.68
2018-11-29T07:25:18.417Z,60.83
2018-11-29T07:26:18.442Z,60.64
2018-11-29T07:27:18.859Z,60.83
2018-11-29T07:28:18.490Z,60.26
2018-11-29T07:29:18.514Z,60.26
2018-11-29T07:30:18.538Z,60.83
2018-11-29T07:31:18.572Z,60.55
2018-11-29T07:32:18.584Z,60.83
2018-11-29T07:33:18.610Z,60.55
2018-11-29T07:34:18.634Z,60.93
2018-11-29T07:35:18.658Z,60.93
2018-11-29T07:36:18.681Z,60.83
2018-11-29T07:37:18.706Z,60.83
2018-11-29T07:38:18.731Z,60.36
2018-11-29T07:39:18.754Z,60.83
2018-11-29T07:40:18.777Z,60.55
2018-11-29T07:41:18.804Z,60.64
2018-11-29T07:42:18.826Z,60.74
2018-11-29T07:43:18.850Z,61.02
2018-11-29T07:44:18.873Z,60.83
2018-11-29T07:45:18.900Z,60.45
2018-11-29T07:46:18.922Z,59.60
2018-11-29T07:47:18.946Z,59.88
2018-11-29T07:48:18.969Z,59.79
2018-11-29T07:49:18.994Z,60.55
2018-11-29T07:50:19.021Z,60.36
2018-11-29T07:51:19.041Z,60.64
2018-11-29T07:52:19.065Z,60.55
2018-11-29T07:53:19.090Z,59.69
2018-11-29T07:54:19.170Z,59.88
2018-11-29T07:55:19.140Z,59.88
2018-11-29T07:56:19.165Z,59.69
2018-11-29T07:57:19.186Z,59.60
2018-11-29T07:58:19.211Z,59.79
2018-11-29T07:59:19.236Z,59.79
2018-11-29T08:00:19.257Z,60.07
2018-11-29T08:01:19.282Z,59.50
2018-11-29T08:02:19.308Z,59.22
2018-11-29T08:03:19.338Z,59.41
2018-11-29T08:04:19.354Z,59.41
2018-11-29T08:05:19.385Z,59.22
2018-11-29T08:06:19.405Z,59.31
2018-11-29T08:07:19.430Z,59.03
2018-11-29T08:08:19.451Z,58.84
2018-11-29T08:09:19.476Z,59.22
2018-11-29T08:10:19.501Z,59.22
2018-11-29T08:11:19.532Z,59.34
2018-11-29T08:12:19.550Z,58.97
2018-11-29T08:13:19.576Z,58.78
2018-11-29T08:14:19.598Z,58.28
2018-11-29T08:15:19.623Z,58.30
2018-11-29T08:16:19.646Z,58.11
2018-11-29T08:17:19.673Z,57.73
2018-11-29T08:18:19.696Z,58.21
2018-11-29T08:19:19.721Z,57.04
2018-11-29T08:20:19.745Z,57.14
2018-11-29T08:21:19.768Z,57.42
2018-11-29T08:22:19.796Z,57.45
2018-11-29T08:23:19.819Z,57.54
2018-11-29T08:24:19.843Z,58.30
2018-11-29T08:25:19.865Z,57.83
2018-11-29T08:26:19.890Z,57.92
2018-11-29T08:27:19.916Z,57.83
2018-11-29T08:28:19.941Z,57.92
2018-11-29T08:29:19.964Z,57.73
2018-11-29T08:30:19.988Z,58.30
2018-11-29T08:31:20.013Z,57.54
2018-11-29T08:32:20.072Z,56.98
2018-11-29T08:33:20.063Z,57.64
2018-11-29T08:34:20.171Z,56.88
2018-11-29T08:35:20.113Z,57.17
2018-11-29T08:36:20.136Z,57.17
2018-11-29T08:37:20.160Z,56.88
2018-11-29T08:38:20.185Z,56.88
2018-11-29T08:39:20.210Z,56.88
2018-11-29T08:40:20.235Z,57.17
2018-11-29T08:41:20.259Z,56.51
2018-11-29T08:42:20.284Z,56.51
2018-11-29T08:43:20.309Z,56.22
2018-11-29T08:44:20.333Z,56.44
2018-11-29T08:45:20.358Z,56.15
2018-11-29T08:46:20.383Z,55.18
2018-11-29T08:47:20.412Z,54.99
2018-11-29T08:48:20.431Z,54.61
2018-11-29T08:49:21.267Z,55.08
2018-11-29T08:50:20.490Z,54.99
2018-11-29T08:51:20.506Z,54.80
2018-11-29T08:52:20.536Z,55.56
2018-11-29T08:53:20.558Z,55.11
2018-11-29T08:54:20.582Z,54.90
2018-11-29T08:55:20.609Z,54.71
2018-11-29T08:56:20.631Z,54.71
2018-11-29T08:57:20.654Z,54.52
2018-11-29T08:58:20.679Z,54.52
2018-11-29T08:59:20.706Z,54.61
2018-11-29T09:00:20.735Z,54.42
2018-11-29T09:01:20.757Z,54.42
2018-11-29T09:02:20.785Z,54.71
2018-11-29T09:03:20.836Z,54.14
2018-11-29T09:04:20.828Z,53.95
2018-11-29T09:05:21.372Z,54.04
2018-11-29T09:06:20.878Z,54.42
2018-11-29T09:07:20.904Z,54.52
2018-11-29T09:08:20.928Z,54.90
2018-11-29T09:09:20.952Z,54.55
2018-11-29T09:10:20.983Z,54.64
2018-11-29T09:11:21.003Z,54.64
2018-11-29T09:12:21.029Z,54.64
2018-11-29T09:13:21.051Z,54.26
2018-11-29T09:14:21.076Z,54.74
2018-11-29T09:15:21.103Z,54.07
2018-11-29T09:16:21.126Z,54.07
2018-11-29T09:17:21.152Z,54.45
2018-11-29T09:18:21.184Z,54.16
2018-11-29T09:19:21.202Z,53.78
2018-11-29T09:20:21.230Z,53.31
2018-11-29T09:21:21.252Z,53.88
2018-11-29T09:22:21.295Z,53.88
2018-11-29T09:23:21.303Z,53.59
2018-11-29T09:24:21.326Z,53.50
2018-11-29T09:25:21.353Z,54.16
2018-11-29T09:26:21.377Z,53.13
2018-11-29T09:27:21.402Z,53.03
2018-11-29T09:28:21.427Z,53.31
2018-11-29T09:29:21.453Z,53.31
2018-11-29T09:30:21.480Z,53.03
2018-11-29T09:31:21.503Z,52.27
2018-11-29T09:32:21.526Z,52.56
2018-11-29T09:33:21.560Z,52.94
2018-11-29T09:34:21.577Z,52.94
2018-11-29T09:35:21.605Z,53.22
2018-11-29T09:36:21.927Z,53.50
2018-11-29T09:37:21.652Z,53.03
2018-11-29T09:38:21.679Z,53.41
2018-11-29T09:39:21.703Z,52.94
2018-11-29T09:40:21.729Z,52.46
2018-11-29T09:41:21.786Z,52.37
2018-11-29T09:42:21.777Z,52.37
2018-11-29T09:43:21.804Z,53.03
2018-11-29T09:44:21.828Z,53.06
2018-11-29T09:45:21.854Z,53.06
2018-11-29T09:46:21.879Z,53.06
2018-11-29T09:47:21.904Z,52.96
2018-11-29T09:48:21.928Z,52.29
2018-11-29T09:49:21.954Z,51.82
2018-11-29T09:50:21.980Z,51.82
2018-11-29T09:51:22.006Z,52.01
2018-11-29T09:52:22.031Z,52.01
2018-11-29T09:53:22.059Z,51.92
2018-11-29T09:54:22.081Z,51.16
2018-11-29T09:55:22.106Z,50.78
2018-11-29T09:56:22.130Z,51.16
2018-11-29T09:57:22.164Z,50.78
2018-11-29T09:58:22.184Z,50.78
2018-11-29T09:59:22.209Z,51.47
2018-11-29T10:00:27.753Z,49.95
2018-11-29T10:01:22.262Z,48.56
2018-11-29T10:02:22.286Z,47.37
2018-11-29T10:03:22.312Z,45.09
2018-11-29T10:04:22.337Z,44.43
2018-11-29T10:05:22.368Z,44.50
2018-11-29T10:06:22.392Z,45.07
2018-11-29T10:07:22.418Z,45.92
2018-11-29T10:08:26.099Z,45.54
2018-11-29T10:09:22.475Z,45.64
2018-11-29T10:10:22.497Z,45.81
2018-11-29T10:11:24.050Z,45.24
2018-11-29T10:12:22.548Z,44.73
2018-11-29T10:13:22.643Z,41.57
2018-11-29T10:14:22.651Z,39.42
2018-11-29T10:15:22.630Z,38.12
2018-11-29T10:16:22.662Z,36.66
2018-11-29T10:17:22.684Z,34.40
2018-11-29T10:18:22.723Z,32.63
2018-11-29T10:19:22.739Z,29.69
2018-11-29T10:20:22.767Z,26.75
2018-11-29T10:21:22.796Z,24.65
2018-11-29T10:22:22.826Z,24.58
2018-11-29T10:23:22.858Z,23.55
2018-11-29T10:24:22.885Z,22.31
2018-11-29T10:25:22.916Z,22.05
2018-11-29T10:26:22.946Z,21.58
2018-11-29T10:27:22.975Z,20.34
2018-11-29T10:28:23.007Z,19.78
2018-11-29T10:29:23.039Z,17.55
2018-11-29T10:30:23.070Z,17.36
2018-11-29T10:31:23.116Z,15.04
2018-11-29T10:32:23.132Z,16.20
2018-11-29T10:33:23.167Z,16.99
2018-11-29T10:34:23.197Z,15.93
2018-11-29T10:35:23.233Z,15.64
2018-11-29T10:36:23.263Z,14.48
2018-11-29T10:37:23.297Z,14.48
2018-11-29T10:38:23.332Z,14.38
2018-11-29T10:39:23.370Z,15.25
2018-11-29T10:40:23.395Z,15.64
2018-11-29T10:41:23.428Z,16.13
2018-11-29T10:42:23.492Z,15.94
2018-11-29T10:43:23.501Z,15.66
2018-11-29T10:44:23.529Z,15.08
2018-11-29T10:45:23.562Z,14.69
2018-11-29T10:46:23.598Z,14.69
2018-11-29T10:47:23.636Z,13.92
2018-11-29T10:48:23.665Z,13.92
2018-11-29T10:49:23.699Z,13.53
2018-11-29T10:50:23.734Z,13.73
2018-11-29T10:51:23.769Z,13.43
2018-11-29T10:52:23.804Z,13.81
2018-11-29T10:53:23.836Z,14.66
2018-11-29T10:54:23.874Z,14.85
2018-11-29T10:55:23.910Z,14.94
2018-11-29T10:56:23.941Z,15.42
2018-11-29T10:57:23.975Z,15.60
2018-11-29T10:58:24.010Z,15.69
2018-11-29T10:59:24.045Z,15.20
2018-11-29T11:00:24.080Z,14.70
2018-11-29T11:01:24.119Z,16.24
2018-11-29T11:02:24.151Z,17.19
2018-11-29T11:03:24.183Z,16.42
2018-11-29T11:04:24.217Z,16.41
2018-11-29T11:05:24.250Z,17.36
2018-11-29T11:06:24.284Z,18.22
2018-11-29T11:07:24.321Z,18.79
2018-11-29T11:08:24.358Z,18.69
2018-11-29T11:09:24.388Z,18.77
2018-11-29T11:10:24.424Z,19.62
2018-11-29T11:11:24.454Z,19.82
2018-11-29T11:12:24.492Z,20.49
2018-11-29T11:13:24.522Z,20.58
2018-11-29T11:14:24.625Z,20.97
2018-11-29T11:15:24.590Z,21.06
2018-11-29T11:16:24.623Z,21.25
2018-11-29T11:17:24.657Z,20.76
2018-11-29T11:18:24.691Z,20.48
2018-11-29T11:19:24.723Z,21.34
2018-11-29T11:20:24.756Z,21.72
2018-11-29T11:21:24.788Z,22.20
2018-11-29T11:22:24.822Z,21.72
2018-11-29T11:23:24.857Z,21.73
2018-11-29T11:24:24.894Z,21.45
2018-11-29T11:25:24.920Z,20.38
2018-11-29T11:26:24.958Z,19.62
2018-11-29T11:27:24.989Z,19.42
2018-11-29T11:28:25.017Z,19.89
2018-11-29T11:29:25.051Z,19.99
2018-11-29T11:30:25.084Z,20.38
2018-11-29T11:31:30.855Z,19.81
2018-11-29T11:32:25.151Z,18.56
2018-11-29T11:33:25.186Z,18.47
2018-11-29T11:34:25.213Z,19.34
2018-11-29T11:35:25.250Z,19.62
2018-11-29T11:36:25.278Z,19.25
2018-11-29T11:37:25.320Z,18.86
2018-11-29T11:38:25.345Z,19.35
2018-11-29T11:39:25.375Z,19.45
2018-11-29T11:40:25.424Z,19.92
2018-11-29T11:41:25.438Z,19.73
2018-11-29T11:42:25.470Z,19.54
2018-11-29T11:43:25.506Z,19.54
2018-11-29T11:44:25.535Z,19.24
2018-11-29T11:45:25.575Z,19.52
2018-11-29T11:46:25.622Z,19.62
2018-11-29T11:47:25.676Z,19.71
2018-11-29T11:48:25.717Z,19.23
2018-11-29T11:49:25.708Z,19.60
2018-11-29T11:50:25.728Z,20.47
2018-11-29T11:51:25.761Z,20.37
2018-11-29T11:52:25.808Z,20.84
2018-11-29T11:53:25.825Z,20.94
2018-11-29T11:54:25.855Z,21.41
2018-11-29T11:55:29.955Z,21.70
2018-11-29T11:56:25.920Z,21.70
2018-11-29T11:57:25.951Z,21.31
2018-11-29T11:58:25.984Z,21.20
2018-11-29T11:59:26.027Z,21.19
2018-11-29T12:00:26.044Z,22.05
2018-11-29T12:01:26.080Z,22.61
2018-11-29T12:02:27.591Z,23.18
2018-11-29T12:03:26.142Z,23.27
2018-11-29T12:04:26.173Z,23.93
2018-11-29T12:05:26.206Z,24.23
2018-11-29T12:06:26.238Z,24.80
2018-11-29T12:07:26.278Z,23.75
2018-11-29T12:08:26.301Z,24.43
2018-11-29T12:09:26.334Z,24.23
2018-11-29T12:10:26.364Z,23.55
2018-11-29T12:11:26.396Z,24.79
2018-11-29T12:12:26.426Z,24.89
2018-11-29T12:13:26.459Z,24.51
2018-11-29T12:14:26.491Z,23.65
2018-11-29T12:15:26.553Z,24.51
2018-11-29T12:16:26.551Z,24.98
2018-11-29T12:17:26.581Z,24.89
2018-11-29T12:18:26.613Z,24.60
2018-11-29T12:19:26.645Z,24.79
2018-11-29T12:20:26.676Z,25.08
2018-11-29T12:21:26.708Z,25.18
2018-11-29T12:22:26.741Z,25.37
2018-11-29T12:23:26.771Z,25.27
2018-11-29T12:24:26.799Z,25.46
2018-11-29T12:25:26.832Z,25.56
2018-11-29T12:26:26.860Z,25.65
2018-11-29T12:27:26.893Z,25.27
2018-11-29T12:28:26.924Z,25.37
2018-11-29T12:29:26.961Z,25.84
2018-11-29T12:30:26.987Z,26.70
2018-11-29T12:31:27.016Z,25.26
2018-11-29T12:32:27.233Z,25.53
2018-11-29T12:33:27.079Z,26.28
2018-11-29T12:34:27.131Z,26.76
2018-11-29T12:35:27.140Z,26.84
2018-11-29T12:36:27.171Z,27.88
2018-11-29T12:37:27.200Z,28.63
2018-11-29T12:38:27.231Z,29.30
2018-11-29T12:39:27.262Z,29.49
2018-11-29T12:40:27.290Z,29.86
2018-11-29T12:41:27.320Z,29.96
2018-11-29T12:42:27.350Z,30.34
2018-11-29T12:43:27.384Z,30.44
2018-11-29T12:44:27.431Z,31.01
2018-11-29T12:45:27.446Z,30.63
2018-11-29T12:46:27.476Z,30.62
2018-11-29T12:47:27.510Z,31.18
2018-11-29T12:48:27.529Z,30.99
2018-11-29T12:49:27.564Z,31.76
2018-11-29T12:50:27.593Z,31.37
2018-11-29T12:51:27.621Z,31.55
2018-11-29T12:52:27.649Z,31.93
2018-11-29T12:53:27.680Z,32.03
2018-11-29T12:54:27.707Z,32.03
2018-11-29T12:55:27.737Z,32.12
2018-11-29T12:56:27.767Z,32.80
2018-11-29T12:57:27.798Z,32.59
2018-11-29T12:58:27.829Z,32.50
2018-11-29T12:59:27.855Z,32.78